sensor_id;sensor_type;location;lat;lon;timestamp;pressure;altitude;pressure_sealevel;temperature;humidity
39309;BME280;26019;47.510;19.122;2022-07-29T00:00:16;100196.75;;;22.66;53.05
39309;BME280;26019;47.510;19.122;2022-07-29T00:10:18;100185.31;;;22.51;54.41
39309;BME280;26019;47.510;19.122;2022-07-29T00:20:20;100209.00;;;22.51;55.33
39309;BME280;26019;47.510;19.122;2022-07-29T00:30:23;100208.91;;;22.52;55.74
39309;BME280;26019;47.510;19.122;2022-07-29T00:40:25;100200.84;;;22.40;56.20
39309;BME280;26019;47.510;19.122;2022-07-29T00:50:32;100188.16;;;22.16;56.61
39309;BME280;26019;47.510;19.122;2022-07-29T01:00:34;100203.13;;;22.15;57.45
39309;BME280;26019;47.510;19.122;2022-07-29T01:10:40;100193.09;;;22.06;58.95
39309;BME280;26019;47.510;19.122;2022-07-29T01:31:06;100183.34;;;21.76;60.61
39309;BME280;26019;47.510;19.122;2022-07-29T01:41:15;100170.53;;;21.70;60.70
39309;BME280;26019;47.510;19.122;2022-07-29T01:51:24;100195.91;;;21.71;61.26
39309;BME280;26019;47.510;19.122;2022-07-29T02:01:29;100184.63;;;21.69;61.81
39309;BME280;26019;47.510;19.122;2022-07-29T02:11:35;100187.63;;;21.61;63.15
39309;BME280;26019;47.510;19.122;2022-07-29T02:21:46;100187.88;;;21.56;63.67
39309;BME280;26019;47.510;19.122;2022-07-29T02:31:50;100183.28;;;21.44;64.82
39309;BME280;26019;47.510;19.122;2022-07-29T02:42:03;100180.09;;;21.21;66.07
39309;BME280;26019;47.510;19.122;2022-07-29T02:52:13;100167.00;;;21.03;67.02
39309;BME280;26019;47.510;19.122;2022-07-29T03:02:18;100177.81;;;20.97;68.11
39309;BME280;26019;47.510;19.122;2022-07-29T03:12:21;100173.66;;;20.76;70.04
39309;BME280;26019;47.510;19.122;2022-07-29T03:22:25;100174.13;;;20.66;71.41
39309;BME280;26019;47.510;19.122;2022-07-29T03:32:26;100178.38;;;20.69;71.07
39309;BME280;26019;47.510;19.122;2022-07-29T03:42:32;100177.50;;;20.68;71.25
39309;BME280;26019;47.510;19.122;2022-07-29T03:52:36;100180.22;;;20.67;72.74
39309;BME280;26019;47.510;19.122;2022-07-29T04:02:38;100188.41;;;20.78;72.98
39309;BME280;26019;47.510;19.122;2022-07-29T04:12:41;100197.44;;;20.72;74.39
39309;BME280;26019;47.510;19.122;2022-07-29T04:22:43;100191.41;;;20.70;75.34
39309;BME280;26019;47.510;19.122;2022-07-29T04:32:45;100193.63;;;20.80;75.11
39309;BME280;26019;47.510;19.122;2022-07-29T04:42:48;100198.63;;;21.02;72.99
39309;BME280;26019;47.510;19.122;2022-07-29T04:52:49;100197.75;;;21.19;71.13
39309;BME280;26019;47.510;19.122;2022-07-29T05:02:52;100204.16;;;21.47;69.71
39309;BME280;26019;47.510;19.122;2022-07-29T05:12:54;100200.56;;;21.98;67.82
39309;BME280;26019;47.510;19.122;2022-07-29T05:23:00;100199.06;;;22.40;65.25
39309;BME280;26019;47.510;19.122;2022-07-29T05:33:03;100201.00;;;22.83;62.79
39309;BME280;26019;47.510;19.122;2022-07-29T05:43:07;100195.69;;;23.14;60.11
39309;BME280;26019;47.510;19.122;2022-07-29T05:53:10;100194.22;;;23.38;57.89
39309;BME280;26019;47.510;19.122;2022-07-29T06:03:20;100201.72;;;23.59;56.06
39309;BME280;26019;47.510;19.122;2022-07-29T06:13:22;100212.59;;;23.96;54.84
39309;BME280;26019;47.510;19.122;2022-07-29T06:23:24;100211.19;;;24.33;53.36
39309;BME280;26019;47.510;19.122;2022-07-29T06:33:25;100224.03;;;24.65;52.52
39309;BME280;26019;47.510;19.122;2022-07-29T06:43:40;100209.41;;;24.86;50.56
39309;BME280;26019;47.510;19.122;2022-07-29T06:53:55;100222.13;;;25.33;48.42
39309;BME280;26019;47.510;19.122;2022-07-29T07:04:03;100204.94;;;26.15;46.17
39309;BME280;26019;47.510;19.122;2022-07-29T07:14:05;100194.16;;;26.65;43.67
39309;BME280;26019;47.510;19.122;2022-07-29T07:24:13;100205.97;;;27.53;41.66
39309;BME280;26019;47.510;19.122;2022-07-29T07:34:22;100201.13;;;27.81;41.33
39309;BME280;26019;47.510;19.122;2022-07-29T07:44:38;100205.47;;;28.26;40.27
39309;BME280;26019;47.510;19.122;2022-07-29T07:55:04;100200.41;;;28.23;40.22
39309;BME280;26019;47.510;19.122;2022-07-29T08:05:10;100207.00;;;28.61;39.27
39309;BME280;26019;47.510;19.122;2022-07-29T08:15:14;100194.78;;;29.23;38.53
39309;BME280;26019;47.510;19.122;2022-07-29T08:25:16;100185.81;;;29.55;37.30
39309;BME280;26019;47.510;19.122;2022-07-29T08:35:23;100184.38;;;30.01;36.74
39309;BME280;26019;47.510;19.122;2022-07-29T08:45:25;100193.34;;;30.30;35.61
39309;BME280;26019;47.510;19.122;2022-07-29T08:55:29;100145.81;;;30.15;34.96
39309;BME280;26019;47.510;19.122;2022-07-29T09:05:33;100159.81;;;30.47;34.14
39309;BME280;26019;47.510;19.122;2022-07-29T09:15:44;100163.63;;;31.39;32.82
39309;BME280;26019;47.510;19.122;2022-07-29T09:25:46;100163.16;;;32.08;30.34
39309;BME280;26019;47.510;19.122;2022-07-29T09:36:05;100157.41;;;33.18;28.38
39309;BME280;26019;47.510;19.122;2022-07-29T09:46:12;100148.94;;;34.40;25.90
39309;BME280;26019;47.510;19.122;2022-07-29T09:56:14;100134.88;;;34.95;25.99
39309;BME280;26019;47.510;19.122;2022-07-29T10:06:20;100131.75;;;35.86;22.76
39309;BME280;26019;47.510;19.122;2022-07-29T10:16:22;100117.41;;;37.00;21.45
39309;BME280;26019;47.510;19.122;2022-07-29T10:26:35;100110.56;;;36.44;22.68
39309;BME280;26019;47.510;19.122;2022-07-29T10:37:04;100111.22;;;39.01;20.69
39309;BME280;26019;47.510;19.122;2022-07-29T10:47:23;100103.78;;;40.91;18.39
39309;BME280;26019;47.510;19.122;2022-07-29T10:57:31;100088.09;;;39.40;17.91
39309;BME280;26019;47.510;19.122;2022-07-29T11:18:25;100059.94;;;37.95;19.76
39309;BME280;26019;47.510;19.122;2022-07-29T11:28:29;100058.00;;;38.88;18.89
39309;BME280;26019;47.510;19.122;2022-07-29T11:38:31;100071.50;;;39.63;18.12
39309;BME280;26019;47.510;19.122;2022-07-29T11:48:34;100055.16;;;41.42;15.77
39309;BME280;26019;47.510;19.122;2022-07-29T11:58:37;100050.97;;;43.98;13.46
39309;BME280;26019;47.510;19.122;2022-07-29T12:08:43;100051.97;;;40.74;15.47
39309;BME280;26019;47.510;19.122;2022-07-29T12:19:15;100041.97;;;39.82;16.86
39309;BME280;26019;47.510;19.122;2022-07-29T12:29:19;100017.84;;;39.33;17.43
39309;BME280;26019;47.510;19.122;2022-07-29T12:39:35;100005.28;;;46.91;11.45
39309;BME280;26019;47.510;19.122;2022-07-29T12:49:39;99996.22;;;47.18;10.41
39309;BME280;26019;47.510;19.122;2022-07-29T12:59:42;99984.31;;;49.91;8.90
39309;BME280;26019;47.510;19.122;2022-07-29T13:09:44;99977.81;;;48.57;9.56
39309;BME280;26019;47.510;19.122;2022-07-29T13:20:04;99961.97;;;49.01;9.80
39309;BME280;26019;47.510;19.122;2022-07-29T13:30:10;99958.69;;;47.46;10.38
39309;BME280;26019;47.510;19.122;2022-07-29T13:40:13;99951.47;;;44.43;12.99
39309;BME280;26019;47.510;19.122;2022-07-29T13:50:15;99941.72;;;45.05;11.88
39309;BME280;26019;47.510;19.122;2022-07-29T14:00:17;99929.91;;;49.98;8.51
39309;BME280;26019;47.510;19.122;2022-07-29T14:10:23;99927.72;;;50.00;8.85
39309;BME280;26019;47.510;19.122;2022-07-29T14:20:26;99921.88;;;48.33;9.78
39309;BME280;26019;47.510;19.122;2022-07-29T14:30:32;99913.06;;;40.73;15.54
39309;BME280;26019;47.510;19.122;2022-07-29T14:40:33;99907.59;;;50.10;8.90
39309;BME280;26019;47.510;19.122;2022-07-29T14:50:35;99889.28;;;44.81;12.20
39309;BME280;26019;47.510;19.122;2022-07-29T15:00:37;99877.94;;;47.33;10.04
39309;BME280;26019;47.510;19.122;2022-07-29T15:10:39;99859.31;;;45.77;11.02
39309;BME280;26019;47.510;19.122;2022-07-29T15:20:41;99860.94;;;46.00;10.92
39309;BME280;26019;47.510;19.122;2022-07-29T15:30:47;99860.75;;;48.06;9.81
39309;BME280;26019;47.510;19.122;2022-07-29T15:40:49;99849.38;;;46.15;11.00
39309;BME280;26019;47.510;19.122;2022-07-29T15:50:54;99841.22;;;47.18;10.43
39309;BME280;26019;47.510;19.122;2022-07-29T16:01:17;99835.63;;;45.60;11.19
39309;BME280;26019;47.510;19.122;2022-07-29T16:11:20;99832.78;;;42.53;13.80
39309;BME280;26019;47.510;19.122;2022-07-29T16:21:31;99830.06;;;44.77;12.02
39309;BME280;26019;47.510;19.122;2022-07-29T16:31:32;99825.06;;;44.39;12.31
39309;BME280;26019;47.510;19.122;2022-07-29T16:41:34;99817.41;;;43.78;12.32
39309;BME280;26019;47.510;19.122;2022-07-29T16:51:36;99822.69;;;43.97;12.60
39309;BME280;26019;47.510;19.122;2022-07-29T17:01:38;99824.06;;;42.51;13.93
39309;BME280;26019;47.510;19.122;2022-07-29T17:11:42;99820.94;;;38.36;17.90
39309;BME280;26019;47.510;19.122;2022-07-29T17:22:05;99820.19;;;35.99;20.38
39309;BME280;26019;47.510;19.122;2022-07-29T17:32:18;99819.47;;;34.06;22.45
39309;BME280;26019;47.510;19.122;2022-07-29T17:42:20;99810.81;;;33.06;24.33
39309;BME280;26019;47.510;19.122;2022-07-29T17:52:26;99799.47;;;32.11;25.03
39309;BME280;26019;47.510;19.122;2022-07-29T18:02:28;99814.41;;;31.61;26.11
39309;BME280;26019;47.510;19.122;2022-07-29T18:12:30;99821.09;;;31.12;27.29
39309;BME280;26019;47.510;19.122;2022-07-29T18:22:32;99814.22;;;30.55;28.22
39309;BME280;26019;47.510;19.122;2022-07-29T18:32:34;99818.75;;;30.09;29.29
39309;BME280;26019;47.510;19.122;2022-07-29T18:42:37;99825.09;;;29.50;30.91
39309;BME280;26019;47.510;19.122;2022-07-29T18:52:44;99855.94;;;29.14;33.64
39309;BME280;26019;47.510;19.122;2022-07-29T19:02:50;99870.75;;;29.26;33.18
39309;BME280;26019;47.510;19.122;2022-07-29T19:12:53;99899.19;;;29.16;34.64
39309;BME280;26019;47.510;19.122;2022-07-29T19:22:57;99902.09;;;28.73;35.96
39309;BME280;26019;47.510;19.122;2022-07-29T19:32:59;99897.81;;;28.41;37.43
39309;BME280;26019;47.510;19.122;2022-07-29T19:43:04;99889.22;;;27.97;38.73
39309;BME280;26019;47.510;19.122;2022-07-29T19:53:31;99894.09;;;27.70;40.18
39309;BME280;26019;47.510;19.122;2022-07-29T20:03:33;99844.84;;;27.14;41.18
39309;BME280;26019;47.510;19.122;2022-07-29T20:13:35;99891.72;;;27.13;42.48
39309;BME280;26019;47.510;19.122;2022-07-29T20:23:37;99908.53;;;26.91;43.46
39309;BME280;26019;47.510;19.122;2022-07-29T20:33:41;99908.34;;;26.72;44.68
39309;BME280;26019;47.510;19.122;2022-07-29T20:43:43;99910.38;;;26.68;44.59
39309;BME280;26019;47.510;19.122;2022-07-29T20:53:46;99892.97;;;26.43;45.48
39309;BME280;26019;47.510;19.122;2022-07-29T21:03:50;99929.81;;;26.46;47.79
39309;BME280;26019;47.510;19.122;2022-07-29T21:13:52;99919.63;;;25.94;51.28
39309;BME280;26019;47.510;19.122;2022-07-29T21:23:54;99914.75;;;25.54;53.82
39309;BME280;26019;47.510;19.122;2022-07-29T21:33:56;99933.72;;;25.23;56.87
39309;BME280;26019;47.510;19.122;2022-07-29T21:43:59;99930.22;;;24.74;59.51
39309;BME280;26019;47.510;19.122;2022-07-29T21:54:03;99936.50;;;24.47;60.93
39309;BME280;26019;47.510;19.122;2022-07-29T22:04:06;99979.47;;;24.62;61.33
39309;BME280;26019;47.510;19.122;2022-07-29T22:14:10;99971.22;;;24.54;63.03
39309;BME280;26019;47.510;19.122;2022-07-29T22:24:12;99980.94;;;24.27;65.32
39309;BME280;26019;47.510;19.122;2022-07-29T22:34:14;99971.81;;;23.80;68.65
39309;BME280;26019;47.510;19.122;2022-07-29T22:44:16;99982.56;;;23.77;71.04
39309;BME280;26019;47.510;19.122;2022-07-29T22:54:18;99983.22;;;23.53;73.77
39309;BME280;26019;47.510;19.122;2022-07-29T23:04:20;99971.91;;;23.38;75.20
39309;BME280;26019;47.510;19.122;2022-07-29T23:14:24;99946.28;;;23.12;77.17
39309;BME280;26019;47.510;19.122;2022-07-29T23:24:29;99950.56;;;23.01;78.30
39309;BME280;26019;47.510;19.122;2022-07-29T23:34:42;99956.28;;;22.93;78.94
39309;BME280;26019;47.510;19.122;2022-07-29T23:44:47;99908.50;;;22.57;80.66
39309;BME280;26019;47.510;19.122;2022-07-29T23:54:49;99924.03;;;22.47;83.04
